Time;durP1;ratioP1;P1;durP2;ratioP2;P2;SDS_P1;SDS_P2;PMS_P1;PMS_P2;Temp;Humidity;BMP_temperature;BMP_pressure;BME280_temperature;BME280_humidity;BME280_pressure;Samples;Min_cycle;Max_cycle;Signal;HPM_P1;HPM_P2
2023/09/12 00:01:06;;;;;;;21.20;14.90;;;;;;;18.08;58.38;101251.78;5028707;28;20560;-70
2023/09/12 00:03:33;;;;;;;25.73;16.02;;;;;;;18.05;58.47;101240.44;5025742;28;20090;-69
2023/09/12 00:06:00;;;;;;;21.00;15.48;;;;;;;18.04;58.33;101254.59;5026468;28;20033;-70
2023/09/12 00:08:26;;;;;;;24.00;15.02;;;;;;;18.05;58.29;101255.44;5030471;28;20076;-69
2023/09/12 00:11:13;;;;;;;24.10;16.02;;;;;;;18.03;58.26;101247.63;5028508;28;20033;-69
2023/09/12 00:13:39;;;;;;;21.95;17.65;;;;;;;18.00;58.05;101239.88;5029924;28;20501;-70
2023/09/12 00:16:05;;;;;;;20.05;15.00;;;;;;;18.00;58.24;101231.94;5032357;28;20569;-68
2023/09/12 00:18:34;;;;;;;28.70;17.80;;;;;;;17.98;57.79;101244.47;5025282;28;20198;-69
2023/09/12 00:21:00;;;;;;;21.60;15.40;;;;;;;18.00;58.29;101242.53;5029062;28;20033;-69
2023/09/12 00:23:27;;;;;;;28.13;15.75;;;;;;;18.03;58.09;101237.06;5025339;28;20051;-69
2023/09/12 00:25:52;;;;;;;24.23;16.75;;;;;;;17.95;58.15;101249.94;5026518;28;20026;-69
2023/09/12 00:28:18;;;;;;;27.67;16.98;;;;;;;17.94;57.98;101253.53;5039439;28;20582;-69
2023/09/12 00:30:44;;;;;;;30.05;17.35;;;;;;;17.91;58.10;101255.50;5027581;28;20494;-69
2023/09/12 00:33:09;;;;;;;31.95;17.02;;;;;;;17.90;58.36;101248.53;5028894;28;20077;-70
2023/09/12 00:35:35;;;;;;;29.08;17.65;;;;;;;17.78;57.99;101237.81;5026983;28;20033;-69
2023/09/12 00:38:01;;;;;;;22.23;14.63;;;;;;;17.78;58.80;101229.03;5042213;28;20727;-70
2023/09/12 00:40:27;;;;;;;27.17;15.75;;;;;;;17.76;58.51;101212.41;5039918;28;20052;-69
2023/09/12 00:42:52;;;;;;;28.92;16.98;;;;;;;17.66;58.70;101217.44;5018198;28;20183;-70
2023/09/12 00:45:18;;;;;;;26.48;15.88;;;;;;;17.73;58.26;101241.69;5022839;28;20124;-70
2023/09/12 00:47:44;;;;;;;28.95;14.90;;;;;;;17.60;59.00;101239.00;5037779;28;20426;-70
2023/09/12 00:50:10;;;;;;;24.38;15.52;;;;;;;17.64;58.56;101251.91;5029440;28;20513;-69
2023/09/12 00:52:38;;;;;;;24.73;16.80;;;;;;;17.58;59.03;101252.31;5023759;28;20041;-73
2023/09/12 00:55:04;;;;;;;23.52;13.98;;;;;;;17.53;59.24;101254.38;5029280;28;20453;-69
2023/09/12 00:57:33;;;;;;;24.17;16.55;;;;;;;17.56;59.25;101270.06;5023051;28;20029;-68
2023/09/12 01:00:01;;;;;;;22.58;15.25;;;;;;;17.61;59.39;101267.13;5020063;28;20037;-69
2023/09/12 01:02:26;;;;;;;28.35;18.20;;;;;;;17.43;59.21;101261.19;5036617;28;20035;-68
2023/09/12 01:04:52;;;;;;;28.70;18.20;;;;;;;17.39;59.09;101271.09;5004307;28;20639;-67
2023/09/12 01:07:17;;;;;;;25.40;16.83;;;;;;;17.44;59.55;101261.06;5018600;28;20110;-67
2023/09/12 01:09:43;;;;;;;22.42;15.00;;;;;;;17.50;59.29;101257.25;5024831;28;20068;-67
2023/09/12 01:12:14;;;;;;;25.25;16.65;;;;;;;17.46;58.87;101247.75;5023651;28;20032;-70
2023/09/12 01:14:40;;;;;;;30.57;18.00;;;;;;;17.31;59.45;101232.88;5038599;28;20045;-70
2023/09/12 01:17:06;;;;;;;30.70;18.00;;;;;;;17.26;59.75;101241.09;5027281;28;20283;-70
2023/09/12 01:19:31;;;;;;;26.55;18.65;;;;;;;17.32;59.41;101239.88;5024006;28;20041;-69
2023/09/12 01:22:03;;;;;;;27.52;17.35;;;;;;;17.32;59.22;101245.16;5025700;28;20395;-68
2023/09/12 01:24:48;;;;;;;27.23;17.95;;;;;;;17.38;58.92;101228.91;5020394;28;20053;-69
2023/09/12 01:27:19;;;;;;;29.92;17.35;;;;;;;17.20;59.63;101202.72;5024584;28;20037;-67
2023/09/12 01:29:46;;;;;;;32.10;17.73;;;;;;;17.17;59.58;101205.53;5019754;28;20055;-68
2023/09/12 01:32:14;;;;;;;32.03;17.33;;;;;;;17.10;59.86;101200.75;5028047;28;20470;-68
2023/09/12 01:34:39;;;;;;;22.98;15.57;;;;;;;17.10;60.29;101206.88;5025140;28;20041;-72
2023/09/12 01:37:05;;;;;;;28.83;18.42;;;;;;;17.09;59.99;101197.28;5027887;28;20407;-70
2023/09/12 01:39:31;;;;;;;26.98;17.38;;;;;;;17.06;59.93;101176.31;5036069;28;20053;-69
2023/09/12 01:41:59;;;;;;;32.47;18.58;;;;;;;17.00;60.80;101176.69;5006164;28;20036;-68
2023/09/12 01:44:28;;;;;;;24.90;15.38;;;;;;;17.10;60.52;101193.66;5018402;28;20080;-67
2023/09/12 01:46:55;;;;;;;27.42;16.85;;;;;;;17.26;60.10;101206.75;5020730;28;20043;-70
2023/09/12 01:49:23;;;;;;;23.60;15.98;;;;;;;17.30;60.05;101200.34;5019807;28;20045;-70
2023/09/12 01:51:53;;;;;;;21.42;14.45;;;;;;;17.35;59.90;101189.47;5026281;28;20045;-69
2023/09/12 01:54:20;;;;;;;24.95;17.25;;;;;;;17.16;59.60;101188.00;5008586;28;20045;-68
2023/09/12 01:56:45;;;;;;;25.95;18.67;;;;;;;17.16;60.36;101214.41;5020573;28;20154;-69
2023/09/12 01:59:11;;;;;;;23.67;16.15;;;;;;;17.27;60.09;101212.88;5043420;28;20728;-68
2023/09/12 02:01:36;;;;;;;25.77;17.85;;;;;;;17.25;60.03;101218.28;5018913;28;20555;-68
2023/09/12 02:04:03;;;;;;;29.75;18.55;;;;;;;17.19;60.28;101214.22;5020964;28;20083;-68
2023/09/12 02:06:28;;;;;;;28.58;19.05;;;;;;;16.98;60.29;101218.22;5019913;28;20042;-70
2023/09/12 02:08:56;;;;;;;23.80;17.42;;;;;;;17.10;59.80;101214.78;5020489;28;20036;-68
2023/09/12 02:11:22;;;;;;;26.50;17.48;;;;;;;17.03;59.88;101216.13;5024943;28;20047;-68
2023/09/12 02:13:47;;;;;;;30.10;19.33;;;;;;;16.97;60.02;101219.97;5006963;28;20040;-68
2023/09/12 02:16:13;;;;;;;28.92;19.95;;;;;;;16.88;60.62;101217.06;5023205;28;20041;-68
2023/09/12 02:18:38;;;;;;;29.60;18.42;;;;;;;16.91;60.14;101211.59;5023153;28;20052;-69
2023/09/12 02:21:04;;;;;;;27.15;18.75;;;;;;;16.92;60.34;101211.50;5042398;28;20029;-69
2023/09/12 02:23:29;;;;;;;25.73;15.63;;;;;;;17.00;60.41;101200.47;5018032;28;20061;-69
2023/09/12 02:25:55;;;;;;;29.40;17.75;;;;;;;17.08;60.07;101203.47;5043087;28;20037;-70
2023/09/12 02:28:21;;;;;;;25.98;17.80;;;;;;;17.13;59.99;101200.56;5031560;28;20136;-70
2023/09/12 02:30:47;;;;;;;24.95;17.73;;;;;;;17.17;59.70;101209.97;5019819;28;20533;-70
2023/09/12 02:33:12;;;;;;;26.52;19.00;;;;;;;17.14;60.04;101205.75;5020428;28;20052;-70
2023/09/12 02:35:38;;;;;;;28.30;19.08;;;;;;;17.22;59.85;101219.31;5023331;28;20067;-70
2023/09/12 02:38:03;;;;;;;25.25;16.65;;;;;;;17.23;59.60;101231.56;5000708;28;21488;-71
2023/09/12 02:40:29;;;;;;;27.30;18.67;;;;;;;17.24;59.86;101227.13;5020000;28;20084;-71
2023/09/12 02:42:54;;;;;;;30.27;18.48;;;;;;;17.31;59.59;101232.88;5040170;28;20038;-71
2023/09/12 02:45:19;;;;;;;24.02;17.83;;;;;;;17.20;59.76;101247.63;5024644;28;20032;-72
2023/09/12 02:47:46;;;;;;;26.15;18.42;;;;;;;17.14;60.12;101255.94;5018348;28;20665;-71
2023/09/12 02:50:12;;;;;;;31.45;18.67;;;;;;;17.17;60.16;101253.09;5039087;28;20045;-72
2023/09/12 02:52:37;;;;;;;25.77;17.80;;;;;;;17.32;59.87;101256.56;5021482;28;20507;-70
2023/09/12 02:55:03;;;;;;;34.33;20.00;;;;;;;17.35;59.68;101260.81;5025091;28;20021;-71
2023/09/12 02:57:29;;;;;;;29.25;18.35;;;;;;;17.36;59.82;101257.25;5019074;28;20480;-69
2023/09/12 02:59:57;;;;;;;27.27;17.88;;;;;;;17.36;59.54;101251.97;5023653;28;20024;-70
2023/09/12 03:02:22;;;;;;;27.00;18.90;;;;;;;17.42;59.32;101259.47;5000851;28;20534;-70
2023/09/12 03:04:48;;;;;;;29.65;21.38;;;;;;;17.42;59.33;101256.81;5032654;28;20032;-72
2023/09/12 03:07:13;;;;;;;24.08;17.30;;;;;;;17.52;59.11;101247.41;5009854;28;20045;-72
2023/09/12 03:09:39;;;;;;;28.20;19.00;;;;;;;17.39;59.22;101254.41;5017003;28;20059;-72
2023/09/12 03:12:05;;;;;;;32.83;18.63;;;;;;;17.40;59.01;101253.44;5024379;28;20127;-69
2023/09/12 03:14:31;;;;;;;24.85;17.15;;;;;;;17.42;59.32;101246.25;5019632;28;20075;-72
2023/09/12 03:16:56;;;;;;;29.05;18.60;;;;;;;17.36;58.97;101246.66;5019537;28;20053;-68
2023/09/12 03:19:22;;;;;;;28.33;18.42;;;;;;;17.30;59.56;101247.88;5020945;28;20103;-68
2023/09/12 03:21:48;;;;;;;25.70;18.88;;;;;;;17.26;59.29;101248.19;5018718;28;20091;-69
2023/09/12 03:24:13;;;;;;;25.52;17.42;;;;;;;17.28;59.06;101236.56;5021338;28;20041;-69
2023/09/12 03:26:39;;;;;;;31.05;18.98;;;;;;;17.13;59.71;101235.72;5034758;28;20454;-68
2023/09/12 03:29:07;;;;;;;37.72;22.45;;;;;;;17.18;59.57;101228.38;5019364;28;21072;-69
2023/09/12 03:31:35;;;;;;;25.65;18.70;;;;;;;17.15;59.44;101225.91;5022409;28;20196;-68
2023/09/12 03:34:01;;;;;;;25.55;17.52;;;;;;;17.09;59.94;101233.38;5022977;28;20553;-69
2023/09/12 03:36:27;;;;;;;23.95;16.83;;;;;;;17.18;59.75;101233.66;5025370;28;20078;-69
2023/09/12 03:38:54;;;;;;;22.58;16.65;;;;;;;17.21;59.72;101228.19;5030467;28;20611;-69
2023/09/12 03:41:22;;;;;;;30.45;18.98;;;;;;;17.18;59.22;101222.22;5043278;28;20136;-69
2023/09/12 03:43:47;;;;;;;25.00;16.40;;;;;;;17.05;59.22;101216.88;5037967;28;20084;-69
2023/09/12 03:46:13;;;;;;;27.30;18.52;;;;;;;17.03;59.32;101208.22;5021987;28;20036;-69
2023/09/12 03:48:39;;;;;;;25.40;17.48;;;;;;;17.01;59.38;101205.66;4997842;28;20033;-69
2023/09/12 03:51:05;;;;;;;29.42;17.55;;;;;;;16.99;59.63;101199.63;5021334;28;20037;-70
2023/09/12 03:53:30;;;;;;;42.70;22.80;;;;;;;16.97;59.46;101190.94;5016979;28;20136;-68
2023/09/12 03:55:57;;;;;;;42.40;21.13;;;;;;;16.88;59.71;101188.03;5022628;28;20500;-69
2023/09/12 03:58:23;;;;;;;29.13;18.90;;;;;;;16.85;59.75;101193.50;5021287;28;20044;-68
2023/09/12 04:00:49;;;;;;;29.02;18.45;;;;;;;16.85;59.66;101194.34;5023791;28;20029;-69
2023/09/12 04:03:16;;;;;;;31.55;19.42;;;;;;;16.79;59.80;101185.00;5025526;28;20092;-67
2023/09/12 04:05:42;;;;;;;30.83;17.67;;;;;;;16.77;59.60;101192.16;5021844;28;20039;-67
2023/09/12 04:08:07;;;;;;;27.77;17.92;;;;;;;16.82;60.05;101205.09;5018374;28;20045;-68
2023/09/12 04:10:33;;;;;;;27.80;18.20;;;;;;;16.81;59.82;101198.97;5001577;28;20033;-67
2023/09/12 04:12:58;;;;;;;31.02;19.58;;;;;;;16.70;59.84;101196.09;5016279;28;20098;-69
2023/09/12 04:15:23;;;;;;;29.77;20.00;;;;;;;16.61;60.00;101186.94;5020221;28;20115;-69
2023/09/12 04:17:49;;;;;;;27.95;18.92;;;;;;;16.61;60.18;101191.38;5041298;28;20045;-68
2023/09/12 04:20:15;;;;;;;28.17;19.58;;;;;;;16.58;60.18;101202.97;5024123;28;20056;-67
2023/09/12 04:22:44;;;;;;;33.78;20.40;;;;;;;16.53;60.39;101197.13;5041368;28;20120;-70
2023/09/12 04:25:10;;;;;;;30.88;20.58;;;;;;;16.47;60.35;101197.50;5022171;28;21613;-71
2023/09/12 04:27:36;;;;;;;36.22;20.77;;;;;;;16.49;60.37;101200.91;5027420;28;20621;-70
2023/09/12 04:30:02;;;;;;;29.75;18.75;;;;;;;16.42;60.25;101192.50;5022379;28;20451;-70
2023/09/12 04:32:28;;;;;;;31.73;19.50;;;;;;;16.45;60.63;101195.91;5013591;28;20044;-69
2023/09/12 04:34:54;;;;;;;35.58;20.58;;;;;;;16.42;60.37;101195.13;5025685;28;20087;-70
2023/09/12 04:37:19;;;;;;;28.05;18.17;;;;;;;16.44;60.24;101200.31;5024097;28;20037;-70
2023/09/12 04:39:45;;;;;;;24.35;17.27;;;;;;;16.52;60.49;101202.50;5024568;28;20064;-70
2023/09/12 04:42:11;;;;;;;25.65;16.13;;;;;;;16.50;59.91;101204.38;5005307;28;20034;-70
2023/09/12 04:44:40;;;;;;;31.10;19.15;;;;;;;16.50;60.24;101210.50;5010060;28;20059;-71
2023/09/12 04:47:05;;;;;;;31.15;18.80;;;;;;;16.48;60.40;101214.16;5026279;28;20131;-69
2023/09/12 04:49:31;;;;;;;39.58;24.00;;;;;;;16.33;60.41;101213.28;5019943;28;20132;-69
2023/09/12 04:51:57;;;;;;;28.25;18.80;;;;;;;16.32;60.33;101212.44;5019516;28;20494;-71
2023/09/12 04:54:22;;;;;;;29.33;19.83;;;;;;;16.36;60.62;101213.97;5022539;28;20037;-71
2023/09/12 04:56:49;;;;;;;24.33;16.50;;;;;;;16.38;60.53;101217.38;5007102;28;20087;-69
2023/09/12 04:59:14;;;;;;;28.30;17.63;;;;;;;16.40;60.33;101214.63;5021791;28;20655;-70
2023/09/12 05:01:40;;;;;;;32.17;20.63;;;;;;;16.37;60.04;101214.81;5022308;28;20064;-70
2023/09/12 05:04:06;;;;;;;30.23;17.77;;;;;;;16.36;60.26;101221.03;5035084;28;20124;-71
2023/09/12 05:06:31;;;;;;;29.63;19.08;;;;;;;16.30;60.54;101227.50;5025093;28;20228;-69
2023/09/12 05:08:57;;;;;;;34.60;21.35;;;;;;;16.30;60.71;101230.13;5036148;28;20049;-68
2023/09/12 05:11:26;;;;;;;32.60;19.38;;;;;;;16.36;60.69;101228.94;5039319;28;20041;-69
2023/09/12 05:13:52;;;;;;;25.27;15.95;;;;;;;16.36;60.34;101224.50;5038921;28;20033;-68
2023/09/12 05:16:19;;;;;;;31.13;20.83;;;;;;;16.45;60.52;101222.28;5025183;28;20663;-68
2023/09/12 05:18:45;;;;;;;32.50;20.05;;;;;;;16.48;60.33;101222.09;5020496;28;20088;-69
2023/09/12 05:21:10;;;;;;;47.35;22.65;;;;;;;16.50;60.14;101228.13;5022470;28;20548;-68
2023/09/12 05:23:36;;;;;;;37.70;23.40;;;;;;;16.49;60.39;101222.00;5022941;28;20094;-66
2023/09/12 05:26:02;;;;;;;33.67;21.60;;;;;;;16.48;60.17;101224.72;5035701;28;20038;-67
2023/09/12 05:28:28;;;;;;;31.75;20.60;;;;;;;16.53;60.32;101233.22;5019034;28;20247;-65
2023/09/12 05:30:54;;;;;;;35.40;22.48;;;;;;;16.58;60.28;101229.38;5019958;28;20419;-66
2023/09/12 05:33:20;;;;;;;40.40;22.77;;;;;;;16.59;59.95;101232.84;5007178;28;20033;-67
2023/09/12 05:35:47;;;;;;;35.33;21.73;;;;;;;16.61;60.35;101239.72;5016778;28;20954;-65
2023/09/12 05:38:15;;;;;;;34.17;21.48;;;;;;;16.70;59.57;101234.84;5035527;28;20128;-69
2023/09/12 05:40:42;;;;;;;38.38;22.95;;;;;;;16.68;59.85;101240.22;5040926;28;20115;-67
2023/09/12 05:43:08;;;;;;;102.18;24.40;;;;;;;16.63;59.99;101248.41;5020429;28;20128;-67
2023/09/12 05:45:34;;;;;;;47.28;22.35;;;;;;;16.66;60.17;101247.38;5024832;28;20033;-70
2023/09/12 05:48:00;;;;;;;27.33;19.52;;;;;;;16.76;59.82;101250.34;5022726;28;20045;-70
2023/09/12 05:50:27;;;;;;;85.53;22.15;;;;;;;16.53;59.48;101259.59;5042066;28;20029;-69
2023/09/12 05:52:52;;;;;;;40.83;20.35;;;;;;;16.61;59.86;101265.28;5018425;28;20080;-70
2023/09/12 05:55:18;;;;;;;30.50;20.08;;;;;;;16.65;59.87;101258.03;5024014;28;20056;-71
2023/09/12 05:57:44;;;;;;;50.65;19.77;;;;;;;16.70;59.45;101264.72;5035915;28;20394;-71
2023/09/12 06:00:11;;;;;;;28.10;18.23;;;;;;;16.71;59.34;101261.16;5039621;28;20090;-68
2023/09/12 06:02:42;;;;;;;36.13;19.05;;;;;;;16.60;59.55;101258.31;5040895;28;20120;-73
2023/09/12 06:05:08;;;;;;;52.92;20.95;;;;;;;16.62;59.54;101266.97;5039447;28;21436;-73
2023/09/12 06:07:34;;;;;;;80.10;21.13;;;;;;;16.58;59.44;101266.31;5018729;28;20464;-73
2023/09/12 06:10:00;;;;;;;105.57;21.73;;;;;;;16.51;59.72;101253.56;5009241;28;20041;-73
2023/09/12 06:12:26;;;;;;;24.58;17.65;;;;;;;16.54;59.91;101259.50;5023593;28;20040;-73
2023/09/12 06:14:54;;;;;;;33.28;18.05;;;;;;;16.69;59.55;101260.41;5020498;28;20056;-73
2023/09/12 06:17:19;;;;;;;35.60;20.33;;;;;;;16.57;59.51;101269.03;5019147;28;20546;-69
2023/09/12 06:19:45;;;;;;;25.70;17.23;;;;;;;16.58;59.49;101273.38;5020195;28;20031;-68
2023/09/12 06:22:10;;;;;;;27.05;18.52;;;;;;;16.66;59.64;101271.13;5019367;28;20032;-70
2023/09/12 06:24:35;;;;;;;49.92;20.88;;;;;;;16.75;59.49;101262.69;5022012;28;20128;-72
2023/09/12 06:27:01;;;;;;;41.45;18.38;;;;;;;16.68;59.13;101266.59;5018767;28;20117;-69
2023/09/12 06:29:26;;;;;;;78.82;22.27;;;;;;;16.53;59.57;101262.22;5009415;28;20080;-69
2023/09/12 06:31:52;;;;;;;24.52;17.98;;;;;;;16.50;60.00;101262.41;5018990;28;20029;-68
2023/09/12 06:34:17;;;;;;;56.13;19.88;;;;;;;16.37;59.52;101263.13;5019199;28;20558;-70
2023/09/12 06:36:44;;;;;;;78.03;21.33;;;;;;;16.48;59.80;101259.03;5021489;28;20036;-71
2023/09/12 06:39:10;;;;;;;30.02;20.77;;;;;;;16.71;59.93;101250.59;5014825;28;20029;-70
2023/09/12 06:41:36;;;;;;;49.28;20.17;;;;;;;16.65;59.25;101258.88;5008178;28;20514;-70
2023/09/12 06:44:04;;;;;;;42.97;21.35;;;;;;;16.81;59.45;101251.75;5018658;28;20048;-70
2023/09/12 06:46:29;;;;;;;27.65;21.15;;;;;;;16.77;59.54;101244.97;5025044;28;20464;-69
2023/09/12 06:48:55;;;;;;;40.25;21.38;;;;;;;16.64;59.62;101251.88;5021000;28;20499;-69
2023/09/12 06:51:24;;;;;;;29.15;19.73;;;;;;;16.73;59.70;101238.16;5019187;28;20025;-68
2023/09/12 06:53:51;;;;;;;95.10;22.17;;;;;;;16.70;59.52;101240.97;5018734;28;20293;-69
2023/09/12 06:56:16;;;;;;;57.70;20.08;;;;;;;16.64;59.29;101246.59;5022971;28;20036;-70
2023/09/12 06:58:42;;;;;;;28.75;19.63;;;;;;;16.50;59.98;101247.44;5031173;28;20057;-67
2023/09/12 07:01:08;;;;;;;59.80;21.00;;;;;;;16.39;60.45;101247.22;5018136;28;20025;-70
2023/09/12 07:03:34;;;;;;;55.80;21.48;;;;;;;16.32;60.63;101249.38;5020823;28;20447;-68
2023/09/12 07:06:00;;;;;;;85.13;22.52;;;;;;;16.29;60.76;101260.09;5018461;28;20037;-67
2023/09/12 07:08:26;;;;;;;29.15;19.52;;;;;;;16.69;60.57;101255.13;5021010;28;20048;-70
2023/09/12 07:10:54;;;;;;;34.58;21.77;;;;;;;16.88;60.16;101241.66;5020027;28;20033;-69
2023/09/12 07:13:24;;;;;;;37.58;21.15;;;;;;;17.04;59.68;101236.28;5018765;28;20045;-68
2023/09/12 07:15:53;;;;;;;33.88;22.38;;;;;;;17.29;59.36;101243.56;5022335;28;20035;-68
2023/09/12 07:18:19;;;;;;;47.67;22.10;;;;;;;17.31;58.58;101236.38;5017678;28;20194;-70
2023/09/12 07:20:45;;;;;;;35.80;22.13;;;;;;;17.42;58.49;101233.88;5025002;28;20036;-68
2023/09/12 07:23:10;;;;;;;30.38;20.00;;;;;;;17.51;58.75;101235.13;5018540;28;20037;-68
2023/09/12 07:25:40;;;;;;;74.88;24.08;;;;;;;17.06;58.04;101234.41;5018921;28;20037;-68
2023/09/12 07:28:06;;;;;;;41.15;21.08;;;;;;;17.23;58.37;101244.78;5018808;28;20050;-68
2023/09/12 07:30:32;;;;;;;39.78;21.15;;;;;;;16.99;59.13;101246.31;5023902;28;20109;-68
2023/09/12 07:32:57;;;;;;;36.05;21.10;;;;;;;17.26;59.17;101250.81;5019923;28;20494;-68
2023/09/12 07:35:23;;;;;;;36.08;21.15;;;;;;;17.41;58.87;101244.56;5020597;28;20483;-68
2023/09/12 07:37:50;;;;;;;28.52;18.67;;;;;;;17.82;58.29;101243.75;5020253;28;20292;-68
2023/09/12 07:40:15;;;;;;;36.63;22.08;;;;;;;17.77;57.38;101240.56;5023589;28;20037;-71
2023/09/12 07:42:41;;;;;;;38.72;23.33;;;;;;;17.62;56.98;101245.03;5016906;28;20454;-68
2023/09/12 07:45:07;;;;;;;35.38;21.35;;;;;;;17.97;58.02;101248.03;5017589;28;20036;-68
2023/09/12 07:47:33;;;;;;;35.20;22.20;;;;;;;17.81;57.29;101252.63;5019327;28;20044;-67
2023/09/12 07:50:00;;;;;;;34.03;22.13;;;;;;;18.04;56.90;101244.03;5019769;28;20025;-70
2023/09/12 07:52:26;;;;;;;36.22;21.35;;;;;;;18.45;56.36;101243.09;5020949;28;20041;-70
2023/09/12 07:54:56;;;;;;;33.80;21.63;;;;;;;18.63;55.85;101240.13;5023436;28;20032;-70
2023/09/12 07:57:23;;;;;;;37.03;22.42;;;;;;;18.81;53.99;101252.13;5020111;28;20040;-70
2023/09/12 07:59:48;;;;;;;38.78;23.77;;;;;;;18.60;54.34;101257.09;5027057;28;20653;-70
2023/09/12 08:02:14;;;;;;;30.48;18.60;;;;;;;18.76;55.15;101263.97;5018909;28;20120;-68
2023/09/12 08:04:40;;;;;;;32.95;19.08;;;;;;;18.89;54.89;101271.00;5025234;28;20032;-68
2023/09/12 08:07:06;;;;;;;36.72;22.00;;;;;;;18.77;53.60;101281.56;5020776;28;20398;-69
2023/09/12 08:09:57;;;;;;;38.13;21.15;;;;;;;18.66;55.52;101284.94;5024198;28;20204;-68
2023/09/12 08:12:25;;;;;;;36.55;22.75;;;;;;;18.97;55.40;101296.13;5033409;28;20752;-68
2023/09/12 08:14:51;;;;;;;37.85;22.33;;;;;;;19.24;54.60;101296.84;5027145;28;20029;-69
2023/09/12 08:17:17;;;;;;;30.98;21.20;;;;;;;19.16;53.18;101301.81;5015945;28;20063;-70
2023/09/12 08:19:43;;;;;;;36.25;20.02;;;;;;;19.67;52.15;101300.91;5025024;28;20029;-70
2023/09/12 08:22:10;;;;;;;34.38;20.02;;;;;;;20.35;50.68;101306.59;5018632;28;20033;-69
2023/09/12 08:24:36;;;;;;;30.98;19.92;;;;;;;20.70;48.87;101311.91;5041122;28;20124;-68
2023/09/12 08:27:03;;;;;;;33.53;20.08;;;;;;;20.62;48.55;101308.97;5022689;28;22524;-68
2023/09/12 08:29:29;;;;;;;30.27;19.75;;;;;;;20.26;49.23;101316.09;5023452;28;20045;-68
2023/09/12 08:31:55;;;;;;;29.48;17.73;;;;;;;20.50;49.19;101322.22;5025445;28;20152;-69
2023/09/12 08:34:21;;;;;;;28.50;18.27;;;;;;;20.91;49.04;101320.91;5017324;28;20044;-68
2023/09/12 08:36:47;;;;;;;29.58;16.55;;;;;;;20.79;48.62;101319.16;5022065;28;20039;-69
2023/09/12 08:39:15;;;;;;;29.65;17.42;;;;;;;20.81;48.09;101319.88;5015565;28;20049;-69
2023/09/12 08:41:42;;;;;;;31.23;17.83;;;;;;;20.28;49.09;101323.00;5026748;28;20031;-69
2023/09/12 08:44:08;;;;;;;32.97;19.38;;;;;;;20.32;48.85;101320.94;5016937;28;20414;-69
2023/09/12 08:46:34;;;;;;;27.15;19.17;;;;;;;20.11;50.63;101320.72;5024052;28;20072;-69
2023/09/12 08:48:59;;;;;;;26.52;17.27;;;;;;;20.25;49.93;101314.41;5034548;28;20545;-69
2023/09/12 08:51:25;;;;;;;33.85;19.52;;;;;;;20.82;48.47;101315.41;5035780;28;20650;-69
2023/09/12 08:53:51;;;;;;;27.70;18.45;;;;;;;21.38;46.76;101317.31;5019035;28;20143;-68
2023/09/12 08:56:18;;;;;;;26.17;16.98;;;;;;;22.09;46.62;101318.72;5033367;28;20103;-69
2023/09/12 08:58:44;;;;;;;27.40;17.88;;;;;;;22.45;44.34;101308.63;5019862;28;20048;-69
2023/09/12 09:01:15;;;;;;;27.52;17.83;;;;;;;22.75;43.37;101313.19;5024120;28;20605;-69
2023/09/12 09:03:43;;;;;;;26.55;15.63;;;;;;;22.30;45.04;101312.56;5023822;28;20160;-68
2023/09/12 09:06:10;;;;;;;25.15;17.95;;;;;;;23.01;44.49;101315.44;5017082;28;20060;-69
2023/09/12 09:08:39;;;;;;;24.20;16.08;;;;;;;23.73;41.90;101316.28;5007236;28;20041;-69
2023/09/12 09:11:06;;;;;;;23.35;16.17;;;;;;;23.60;43.09;101312.03;5020176;28;21343;-69
2023/09/12 09:13:32;;;;;;;27.13;15.32;;;;;;;23.87;42.07;101313.25;5019320;28;20048;-69
2023/09/12 09:16:14;;;;;;;18.77;12.20;;;;;;;24.48;41.91;101311.31;5019503;28;20037;-69
2023/09/12 09:18:51;;;;;;;;;;;;;;;24.57;40.75;101305.97;5022201;28;20049;-70
2023/09/12 09:21:25;;;;;;;20.70;12.90;;;;;;;24.63;39.78;101305.38;5020472;28;19917;-69
2023/09/12 09:23:52;;;;;;;20.73;14.00;;;;;;;24.13;40.69;101313.56;5018271;28;20037;-69
2023/09/12 09:26:18;;;;;;;16.58;12.50;;;;;;;23.51;42.77;101322.69;5039612;28;20080;-69
2023/09/12 09:28:44;;;;;;;19.15;13.90;;;;;;;23.34;42.95;101319.69;5020119;28;20083;-69
2023/09/12 09:31:14;;;;;;;17.60;13.48;;;;;;;22.61;44.09;101318.00;5019374;28;20033;-69
2023/09/12 09:33:40;;;;;;;19.40;13.85;;;;;;;22.82;44.60;101308.19;5019638;28;20614;-69
2023/09/12 09:36:07;;;;;;;20.42;13.25;;;;;;;22.11;43.78;101322.06;5020575;28;20067;-69
2023/09/12 09:38:36;;;;;;;20.80;13.57;;;;;;;22.16;44.86;101309.22;5016368;28;20256;-69
2023/09/12 09:41:06;;;;;;;17.35;12.80;;;;;;;22.71;43.07;101305.59;5019723;28;20094;-69
2023/09/12 09:43:32;;;;;;;19.02;14.93;;;;;;;22.37;43.79;101297.75;5019557;28;20047;-69
2023/09/12 09:45:58;;;;;;;19.85;14.23;;;;;;;21.25;45.32;101312.97;5017840;28;20037;-69
2023/09/12 09:48:26;;;;;;;16.70;13.82;;;;;;;21.40;45.89;101318.03;5019898;28;20045;-69
2023/09/12 09:50:59;;;;;;;16.23;12.65;;;;;;;21.44;45.28;101311.50;5023590;28;20076;-69
2023/09/12 09:53:29;;;;;;;14.90;11.75;;;;;;;21.52;44.93;101319.75;5020035;28;20037;-69
2023/09/12 09:56:21;;;;;;;16.83;11.38;;;;;;;21.77;44.60;101326.59;5022376;28;20472;-68
2023/09/12 09:58:47;;;;;;;;;;;;;;;21.71;44.82;101327.09;5018928;28;20045;-69
2023/09/12 10:01:16;;;;;;;15.43;11.60;;;;;;;21.63;45.19;101317.09;5020025;28;19932;-69
2023/09/12 10:03:44;;;;;;;14.38;11.38;;;;;;;21.61;44.61;101324.34;5021095;28;20084;-69
2023/09/12 10:06:11;;;;;;;13.20;10.18;;;;;;;21.27;45.25;101327.00;5020987;28;20044;-69
2023/09/12 10:08:39;;;;;;;15.10;11.02;;;;;;;20.96;45.51;101322.38;5016143;28;20056;-69
2023/09/12 10:11:05;;;;;;;14.75;10.32;;;;;;;21.19;45.12;101326.72;5033780;28;20125;-69
2023/09/12 10:13:35;;;;;;;11.82;8.93;;;;;;;21.69;45.17;101315.72;5002940;28;20053;-68
2023/09/12 10:16:04;;;;;;;13.60;8.95;;;;;;;21.95;44.76;101316.28;5017412;28;20047;-68
2023/09/12 10:18:37;;;;;;;16.13;10.27;;;;;;;22.01;43.77;101321.09;5018573;28;20126;-69
2023/09/12 10:21:11;;;;;;;15.50;9.65;;;;;;;22.28;43.00;101314.50;5018518;28;20045;-70
2023/09/12 10:23:44;;;;;;;13.93;11.25;;;;;;;22.45;42.58;101305.97;5027937;28;20067;-72
2023/09/12 10:26:13;;;;;;;12.43;10.02;;;;;;;22.45;43.10;101305.97;5020246;28;20139;-68
2023/09/12 10:28:42;;;;;;;17.85;10.60;;;;;;;21.86;43.33;101306.41;5023056;28;20073;-68
2023/09/12 10:31:12;;;;;;;14.02;10.00;;;;;;;21.78;44.49;101320.34;5020326;28;20033;-72
2023/09/12 10:33:39;;;;;;;14.57;10.18;;;;;;;22.78;43.71;101304.94;5014476;28;20098;-70
2023/09/12 10:36:06;;;;;;;10.93;7.93;;;;;;;23.49;42.27;101303.31;5018354;28;20037;-70
2023/09/12 10:38:44;;;;;;;16.13;11.13;;;;;;;23.50;40.68;101308.53;5016673;28;20513;-70
2023/09/12 10:41:16;;;;;;;17.88;11.75;;;;;;;24.04;40.18;101309.06;5019022;28;20024;-69
2023/09/12 10:43:46;;;;;;;13.13;10.38;;;;;;;24.85;38.98;101303.38;5013898;28;20129;-70
2023/09/12 10:46:12;;;;;;;15.50;9.80;;;;;;;25.16;37.39;101295.13;5020113;28;20035;-70
2023/09/12 10:48:40;;;;;;;12.48;9.98;;;;;;;24.59;38.01;101290.66;5017381;28;20036;-69
2023/09/12 10:51:08;;;;;;;11.60;9.55;;;;;;;24.56;38.79;101295.41;5018131;28;20033;-69
2023/09/12 10:53:33;;;;;;;13.52;8.85;;;;;;;25.33;37.49;101298.84;5017805;28;20044;-70
2023/09/12 10:56:08;;;;;;;11.70;8.35;;;;;;;25.34;36.42;101301.38;5035008;28;20080;-68
2023/09/12 10:59:12;;;;;;;12.55;9.52;;;;;;;24.48;37.92;101296.16;5013745;28;20064;-68
2023/09/12 11:01:39;;;;;;;8.80;7.63;;;;;;;25.77;37.84;101299.03;5015653;28;20072;-69
2023/09/12 11:04:28;;;;;;;12.65;8.18;;;;;;;25.74;36.45;101294.84;5019801;28;20075;-69
2023/09/12 11:06:54;;;;;;;13.65;10.02;;;;;;;25.38;35.53;101294.75;5011975;28;20107;-69
2023/09/12 11:09:27;;;;;;;16.20;13.52;;;;;;;25.93;35.50;101293.84;5014413;28;20498;-69